Time;durP1;ratioP1;P1;durP2;ratioP2;P2;SDS_P1;SDS_P2;PMS_P1;PMS_P2;Temp;Humidity;BMP_temperature;BMP_pressure;BME280_temperature;BME280_humidity;BME280_pressure;Samples;Min_cycle;Max_cycle;Signal;HPM_P1;HPM_P2
2022/01/31 00:01:50;;;;;;;22.17;6.43;;;3.70;99.90;;;;;;5060731;28;20052;-61
2022/01/31 00:04:16;;;;;;;21.10;5.63;;;3.70;99.90;;;;;;5078408;28;20516;-61
2022/01/31 00:06:47;;;;;;;20.65;6.10;;;3.70;99.90;;;;;;5078451;28;20041;-61
2022/01/31 00:09:15;;;;;;;22.05;7.82;;;3.70;99.90;;;;;;5077627;28;20127;-61
2022/01/31 00:11:44;;;;;;;32.08;7.22;;;3.70;99.90;;;;;;5078323;28;20040;-60
2022/01/31 00:14:21;;;;;;;21.92;6.35;;;3.80;99.90;;;;;;5078894;28;20279;-61
2022/01/31 00:16:47;;;;;;;21.95;6.68;;;3.70;99.90;;;;;;5077075;28;20055;-61
2022/01/31 00:19:12;;;;;;;32.33;7.78;;;3.80;99.90;;;;;;5076829;28;20135;-61
2022/01/31 00:21:38;;;;;;;27.10;7.47;;;3.80;99.90;;;;;;5078798;28;20044;-61
2022/01/31 00:24:04;;;;;;;27.10;7.35;;;3.80;99.90;;;;;;5060249;28;20033;-61
2022/01/31 00:26:29;;;;;;;24.48;7.38;;;3.80;99.90;;;;;;5079168;28;20095;-61
2022/01/31 00:28:55;;;;;;;22.42;6.30;;;3.80;99.90;;;;;;5081411;28;20045;-61
2022/01/31 00:31:21;;;;;;;19.95;6.00;;;3.80;99.90;;;;;;5082170;28;20052;-61
2022/01/31 00:33:46;;;;;;;24.27;6.38;;;3.80;99.90;;;;;;5081789;28;20044;-61
2022/01/31 00:36:12;;;;;;;18.60;5.63;;;3.80;99.90;;;;;;5081804;28;20096;-61
2022/01/31 00:38:38;;;;;;;23.83;5.70;;;3.80;99.90;;;;;;5081804;28;20048;-61
2022/01/31 00:41:03;;;;;;;24.13;6.13;;;3.80;99.90;;;;;;5081767;28;20068;-61
2022/01/31 00:43:29;;;;;;;20.40;5.82;;;3.90;99.90;;;;;;5080915;28;20502;-61
2022/01/31 00:46:00;;;;;;;17.80;5.45;;;3.80;99.90;;;;;;5081502;28;20047;-61
2022/01/31 00:48:28;;;;;;;18.95;5.80;;;3.80;99.90;;;;;;5063860;28;20045;-61
2022/01/31 00:50:54;;;;;;;28.20;7.38;;;3.90;99.90;;;;;;5079931;28;20117;-61
2022/01/31 00:53:20;;;;;;;23.50;6.43;;;3.90;99.90;;;;;;5081205;28;20534;-61
2022/01/31 00:55:46;;;;;;;22.17;6.70;;;3.90;99.90;;;;;;5063009;28;20080;-61
2022/01/31 00:58:11;;;;;;;27.13;8.63;;;3.90;99.90;;;;;;5081205;28;20036;-61
2022/01/31 01:00:37;;;;;;;20.45;8.27;;;3.80;99.90;;;;;;5081812;28;20041;-61
2022/01/31 01:03:04;;;;;;;22.98;6.88;;;3.80;99.90;;;;;;5080952;28;20048;-61
2022/01/31 01:05:29;;;;;;;29.70;7.50;;;3.90;99.90;;;;;;5063392;28;20044;-61
2022/01/31 01:07:55;;;;;;;21.00;7.65;;;3.90;99.90;;;;;;5081112;28;20081;-61
2022/01/31 01:10:21;;;;;;;25.20;7.97;;;3.80;99.90;;;;;;5046542;28;20041;-61
2022/01/31 01:12:47;;;;;;;22.35;7.55;;;3.90;99.90;;;;;;5063154;28;20044;-61
2022/01/31 01:15:15;;;;;;;20.95;8.65;;;3.80;99.90;;;;;;5080926;28;20037;-60
2022/01/31 01:17:41;;;;;;;23.38;7.57;;;3.80;99.90;;;;;;5063286;28;20044;-61
2022/01/31 01:20:09;;;;;;;27.15;10.38;;;3.80;99.90;;;;;;5062581;28;20055;-61
2022/01/31 01:22:34;;;;;;;26.75;9.10;;;3.60;99.90;;;;;;5080302;28;20108;-61
2022/01/31 01:25:03;;;;;;;24.15;9.10;;;3.70;99.90;;;;;;5045896;28;20098;-61
2022/01/31 01:27:29;;;;;;;31.45;10.77;;;3.70;99.90;;;;;;5062940;28;20067;-61
2022/01/31 01:29:56;;;;;;;25.23;10.02;;;3.70;99.90;;;;;;5080790;28;20044;-61
2022/01/31 01:32:23;;;;;;;27.05;11.50;;;3.60;99.90;;;;;;5080819;28;20083;-61
2022/01/31 01:34:49;;;;;;;31.25;12.68;;;3.60;99.90;;;;;;5081326;28;20066;-61
2022/01/31 01:37:15;;;;;;;33.20;12.00;;;3.50;99.90;;;;;;5080440;28;20045;-61
2022/01/31 01:39:41;;;;;;;22.73;11.60;;;3.60;99.90;;;;;;5080755;28;20041;-61
2022/01/31 01:42:08;;;;;;;26.13;14.27;;;3.50;99.90;;;;;;5062611;28;20052;-60
2022/01/31 01:44:40;;;;;;;26.58;13.32;;;3.50;99.90;;;;;;5080470;28;20059;-60
2022/01/31 01:47:06;;;;;;;28.52;13.63;;;3.40;99.90;;;;;;5080556;28;20079;-60
2022/01/31 01:49:32;;;;;;;21.27;12.45;;;3.50;99.90;;;;;;5080109;28;20036;-60
2022/01/31 01:51:58;;;;;;;28.05;14.55;;;3.30;99.90;;;;;;5080958;28;20063;-60
2022/01/31 01:54:23;;;;;;;29.08;13.52;;;3.20;99.90;;;;;;5080179;28;20584;-60
2022/01/31 01:56:49;;;;;;;24.52;13.80;;;3.20;99.90;;;;;;5080466;28;20040;-61
2022/01/31 01:59:15;;;;;;;29.88;13.73;;;3.30;99.90;;;;;;5080159;28;20044;-60
2022/01/31 02:01:40;;;;;;;24.63;12.57;;;3.30;99.90;;;;;;5080262;28;20470;-59
2022/01/31 02:04:06;;;;;;;24.05;13.52;;;3.20;99.90;;;;;;5061988;28;20123;-60
2022/01/31 02:06:32;;;;;;;22.80;12.68;;;3.00;99.90;;;;;;5080093;28;20391;-60
2022/01/31 02:08:59;;;;;;;23.13;12.60;;;3.20;99.90;;;;;;5080484;28;20044;-61
2022/01/31 02:11:25;;;;;;;23.52;13.55;;;3.00;99.90;;;;;;5061562;28;20070;-59
2022/01/31 02:13:51;;;;;;;25.98;13.07;;;3.10;99.90;;;;;;5062243;28;20067;-60
2022/01/31 02:16:17;;;;;;;20.05;11.95;;;3.20;99.90;;;;;;5079686;28;20047;-60
2022/01/31 02:18:52;;;;;;;21.92;12.13;;;3.00;99.90;;;;;;5079888;28;20097;-61
2022/01/31 02:21:18;;;;;;;19.67;11.10;;;3.00;99.90;;;;;;5079558;28;20607;-61
2022/01/31 02:23:44;;;;;;;18.88;11.40;;;3.00;99.90;;;;;;5045068;28;20041;-61
2022/01/31 02:26:10;;;;;;;18.65;10.38;;;3.00;99.90;;;;;;5080212;28;20048;-60
2022/01/31 02:28:38;;;;;;;17.98;9.80;;;2.70;99.90;;;;;;5079279;28;20041;-60
2022/01/31 02:31:05;;;;;;;16.92;9.65;;;2.90;99.90;;;;;;5080108;28;20479;-60
2022/01/31 02:33:31;;;;;;;21.20;11.48;;;2.70;99.90;;;;;;5079630;28;20446;-60
2022/01/31 02:35:59;;;;;;;19.55;10.35;;;2.80;99.90;;;;;;5079739;28;20066;-61
2022/01/31 02:38:26;;;;;;;19.17;11.20;;;2.70;99.90;;;;;;5079435;28;20166;-60
2022/01/31 02:40:52;;;;;;;21.42;11.70;;;2.80;99.90;;;;;;5079495;28;20071;-60
2022/01/31 02:43:20;;;;;;;20.33;12.05;;;3.00;99.90;;;;;;5061431;28;20052;-60
2022/01/31 02:45:46;;;;;;;26.58;12.57;;;3.10;99.90;;;;;;5060968;28;20051;-59
2022/01/31 02:48:14;;;;;;;20.85;12.02;;;3.00;99.90;;;;;;5079723;28;20100;-59
2022/01/31 02:50:40;;;;;;;19.63;12.52;;;3.10;99.90;;;;;;5078426;28;20044;-60
2022/01/31 02:53:13;;;;;;;18.42;12.57;;;3.20;99.90;;;;;;5070858;28;20053;-60
2022/01/31 02:55:44;;;;;;;24.98;13.52;;;3.10;99.90;;;;;;5079590;28;20367;-60
2022/01/31 02:58:11;;;;;;;22.27;12.48;;;3.20;99.90;;;;;;5078028;28;20058;-60
2022/01/31 03:00:38;;;;;;;23.35;13.48;;;3.20;99.90;;;;;;5079942;28;20037;-60
2022/01/31 03:03:04;;;;;;;23.38;12.73;;;3.20;99.90;;;;;;5078940;28;20586;-60
2022/01/31 03:05:30;;;;;;;26.00;12.52;;;3.20;99.90;;;;;;5079394;28;20037;-60
2022/01/31 03:07:56;;;;;;;22.83;11.65;;;3.50;99.90;;;;;;5060940;28;20044;-60
2022/01/31 03:10:22;;;;;;;25.90;12.02;;;3.40;99.90;;;;;;5079058;28;20120;-60
2022/01/31 03:12:48;;;;;;;23.15;11.95;;;3.50;99.90;;;;;;5078989;28;20123;-60
2022/01/31 03:15:13;;;;;;;23.45;11.25;;;3.50;99.90;;;;;;5079008;28;20094;-60
2022/01/31 03:17:42;;;;;;;19.88;9.05;;;3.60;99.90;;;;;;5078005;28;20044;-58
2022/01/31 03:20:08;;;;;;;21.45;9.98;;;3.70;99.90;;;;;;5078316;28;20072;-59
2022/01/31 03:22:34;;;;;;;19.02;9.10;;;3.70;99.90;;;;;;5079150;28;20141;-60
2022/01/31 03:24:59;;;;;;;17.92;7.90;;;3.80;99.90;;;;;;5077536;28;20036;-60
2022/01/31 03:27:25;;;;;;;28.52;8.32;;;3.90;99.90;;;;;;5077397;28;20052;-61
2022/01/31 03:29:51;;;;;;;23.65;7.10;;;4.00;99.90;;;;;;5079024;28;20048;-61
2022/01/31 03:32:16;;;;;;;26.55;6.82;;;4.20;99.90;;;;;;5078827;28;20046;-61
2022/01/31 03:34:42;;;;;;;19.70;6.57;;;4.40;99.90;;;;;;5079254;28;20047;-61
2022/01/31 03:37:08;;;;;;;21.98;5.78;;;4.50;99.90;;;;;;5078944;28;20379;-60
2022/01/31 03:39:34;;;;;;;22.25;5.22;;;4.60;99.90;;;;;;5079310;28;20068;-61
2022/01/31 03:41:59;;;;;;;26.90;5.45;;;4.50;99.90;;;;;;5043896;28;20446;-61
2022/01/31 03:44:25;;;;;;;23.90;5.00;;;4.70;99.90;;;;;;5078808;28;20045;-61
2022/01/31 03:46:51;;;;;;;32.67;5.88;;;4.90;99.90;;;;;;5060749;28;20041;-60
2022/01/31 03:49:16;;;;;;;28.95;5.95;;;4.90;99.90;;;;;;5078085;28;20044;-61
2022/01/31 03:51:42;;;;;;;34.10;5.00;;;5.00;99.90;;;;;;5079008;28;20071;-61
2022/01/31 03:54:08;;;;;;;30.15;7.47;;;5.20;99.90;;;;;;5060158;28;20056;-62
2022/01/31 03:56:35;;;;;;;22.80;5.38;;;5.20;99.90;;;;;;5079213;28;20083;-62
2022/01/31 03:59:01;;;;;;;25.27;3.80;;;5.00;99.90;;;;;;5060417;28;20047;-62
2022/01/31 04:01:27;;;;;;;26.90;3.90;;;5.00;99.90;;;;;;5061889;28;20113;-62
2022/01/31 04:03:52;;;;;;;22.55;5.82;;;4.80;99.90;;;;;;5082121;28;20112;-62
2022/01/31 04:06:18;;;;;;;16.58;3.45;;;4.90;99.90;;;;;;5047720;28;20036;-62
2022/01/31 04:08:44;;;;;;;18.95;4.05;;;4.90;99.90;;;;;;5047597;28;20045;-62
2022/01/31 04:11:10;;;;;;;21.33;3.97;;;5.00;99.90;;;;;;5081942;28;20616;-62
2022/01/31 04:13:37;;;;;;;20.73;3.08;;;4.90;99.90;;;;;;5102836;28;20134;-62
2022/01/31 04:16:03;;;;;;;20.40;3.45;;;4.80;99.90;;;;;;5084245;28;20044;-62
2022/01/31 04:18:29;;;;;;;17.48;3.65;;;5.00;99.90;;;;;;5102542;28;20039;-62
2022/01/31 04:20:54;;;;;;;14.75;2.45;;;4.80;99.90;;;;;;5084047;28;20036;-62
2022/01/31 04:23:23;;;;;;;17.98;3.20;;;5.00;99.90;;;;;;5102308;28;20043;-62
2022/01/31 04:28:23;;;;;;;15.43;2.22;;;4.80;99.90;;;;;;5087593;28;20048;-61
2022/01/31 04:30:58;;;;;;;19.48;3.10;;;4.80;99.90;;;;;;5064470;28;20056;-63
2022/01/31 04:33:25;;;;;;;22.63;3.20;;;4.90;99.90;;;;;;5063684;28;20044;-62
2022/01/31 04:35:52;;;;;;;19.92;3.17;;;4.70;99.90;;;;;;5081895;28;20060;-62
2022/01/31 04:38:19;;;;;;;17.13;3.20;;;5.10;99.90;;;;;;5047101;28;20033;-61
2022/01/31 04:40:45;;;;;;;20.55;3.40;;;4.80;99.90;;;;;;5081712;28;20047;-61
2022/01/31 04:43:11;;;;;;;21.63;2.95;;;4.60;99.90;;;;;;5047408;28;20051;-61
2022/01/31 04:45:37;;;;;;;14.93;3.33;;;4.70;99.90;;;;;;5063519;28;21023;-61
2022/01/31 04:48:03;;;;;;;20.88;3.35;;;4.70;99.90;;;;;;5063701;28;20072;-61
2022/01/31 04:50:29;;;;;;;15.07;2.35;;;4.60;99.90;;;;;;5081144;28;20036;-61
2022/01/31 04:52:55;;;;;;;18.65;3.40;;;4.60;99.90;;;;;;5081346;28;20059;-61
2022/01/31 04:55:21;;;;;;;20.38;3.28;;;4.70;99.90;;;;;;5063237;28;20057;-61
2022/01/31 04:57:46;;;;;;;26.02;5.78;;;4.70;99.90;;;;;;5081423;28;20104;-61
2022/01/31 05:00:12;;;;;;;18.75;2.45;;;4.70;99.90;;;;;;5081706;28;20049;-61
2022/01/31 05:02:38;;;;;;;9.27;2.50;;;4.70;99.90;;;;;;5080952;28;20052;-61
2022/01/31 05:05:04;;;;;;;8.40;1.48;;;4.80;99.90;;;;;;5081691;28;20052;-60
2022/01/31 05:07:30;;;;;;;15.57;2.70;;;4.80;99.90;;;;;;5063190;28;20032;-61
2022/01/31 05:09:56;;;;;;;12.48;1.83;;;4.60;99.90;;;;;;5081448;28;20063;-61
2022/01/31 05:12:23;;;;;;;12.88;1.95;;;4.70;99.90;;;;;;5090749;28;20040;-61
2022/01/31 05:14:49;;;;;;;12.63;2.00;;;4.50;99.90;;;;;;5082665;28;20063;-62
2022/01/31 05:17:14;;;;;;;13.95;3.08;;;4.40;99.90;;;;;;5066958;28;20037;-62
2022/01/31 05:19:40;;;;;;;14.70;2.40;;;4.50;99.90;;;;;;5100905;28;20060;-62
2022/01/31 05:22:06;;;;;;;13.48;2.70;;;4.30;99.90;;;;;;5083668;28;20479;-62
2022/01/31 05:24:31;;;;;;;15.48;2.67;;;4.50;99.90;;;;;;5101070;28;20076;-61
2022/01/31 05:26:57;;;;;;;15.88;2.33;;;4.30;99.90;;;;;;5079707;28;20040;-61
2022/01/31 05:29:23;;;;;;;17.98;2.00;;;4.30;99.90;;;;;;5046204;28;20112;-62
2022/01/31 05:31:49;;;;;;;21.52;3.22;;;4.40;99.90;;;;;;5080504;28;20041;-61
2022/01/31 05:34:15;;;;;;;17.13;2.47;;;4.20;99.90;;;;;;5080810;28;20492;-62
2022/01/31 05:36:42;;;;;;;13.88;2.63;;;4.30;99.90;;;;;;5080605;28;20055;-61
2022/01/31 05:39:08;;;;;;;13.18;2.38;;;4.10;99.90;;;;;;5063231;28;20063;-61
2022/01/31 05:41:34;;;;;;;18.30;2.55;;;4.10;99.90;;;;;;5062258;28;20048;-61
2022/01/31 05:44:00;;;;;;;16.33;3.33;;;4.20;99.90;;;;;;5080817;28;20189;-62
2022/01/31 05:46:25;;;;;;;16.05;2.35;;;4.30;99.90;;;;;;5062443;28;20052;-61
2022/01/31 05:48:52;;;;;;;19.98;2.08;;;4.30;99.90;;;;;;5080228;28;20068;-62
2022/01/31 05:51:21;;;;;;;17.35;2.25;;;4.30;99.90;;;;;;5061941;28;20052;-61
2022/01/31 05:53:47;;;;;;;11.05;2.92;;;4.30;99.90;;;;;;5077493;28;20052;-61
2022/01/31 05:56:15;;;;;;;15.32;2.22;;;4.40;99.90;;;;;;5080739;28;20048;-61
2022/01/31 05:58:41;;;;;;;13.18;1.95;;;4.30;99.90;;;;;;5075026;28;20840;-62
2022/01/31 06:01:07;;;;;;;14.68;2.05;;;4.30;99.90;;;;;;5058847;28;20657;-61
2022/01/31 06:03:33;;;;;;;14.75;2.00;;;4.30;99.90;;;;;;5041893;28;20050;-61
2022/01/31 06:05:59;;;;;;;16.17;2.80;;;4.30;99.90;;;;;;5076838;28;20047;-61
2022/01/31 06:08:25;;;;;;;9.75;2.22;;;4.30;99.90;;;;;;5076891;28;20045;-62
2022/01/31 06:10:51;;;;;;;13.48;2.67;;;4.30;99.90;;;;;;5058300;28;20164;-62
2022/01/31 06:13:22;;;;;;;13.57;2.20;;;4.50;99.90;;;;;;5077343;28;20048;-62
2022/01/31 06:15:48;;;;;;;13.73;1.83;;;4.50;99.90;;;;;;5076557;28;20060;-61
2022/01/31 06:18:14;;;;;;;16.48;2.60;;;4.30;99.90;;;;;;5076812;28;20044;-62
2022/01/31 06:20:40;;;;;;;18.35;3.58;;;4.50;99.90;;;;;;5076354;28;20676;-61
2022/01/31 06:23:06;;;;;;;17.02;1.70;;;4.50;99.90;;;;;;5075944;28;20151;-61
2022/01/31 06:25:32;;;;;;;13.05;3.30;;;4.40;99.90;;;;;;5075647;28;20865;-60
2022/01/31 06:27:58;;;;;;;18.42;3.95;;;4.40;99.90;;;;;;5074847;28;20236;-61
2022/01/31 06:30:26;;;;;;;15.07;2.28;;;4.30;99.90;;;;;;5075295;28;20040;-60
2022/01/31 06:32:55;;;;;;;18.60;4.15;;;4.30;99.90;;;;;;5074923;28;20066;-60
2022/01/31 06:35:21;;;;;;;13.85;2.63;;;4.40;99.90;;;;;;5058153;28;20052;-61
2022/01/31 06:37:47;;;;;;;18.15;2.50;;;4.50;99.90;;;;;;5076172;28;20081;-61
2022/01/31 06:40:13;;;;;;;16.30;2.97;;;4.40;99.90;;;;;;5074424;28;20063;-61
2022/01/31 06:42:39;;;;;;;18.08;2.47;;;4.40;99.90;;;;;;5076250;28;20048;-61
2022/01/31 06:45:05;;;;;;;17.20;2.50;;;4.60;99.90;;;;;;5057880;28;20109;-61
2022/01/31 06:47:31;;;;;;;13.30;2.25;;;4.40;99.90;;;;;;5076336;28;20537;-61
2022/01/31 06:49:59;;;;;;;15.00;3.17;;;4.50;99.90;;;;;;5075453;28;20723;-62
2022/01/31 06:52:26;;;;;;;13.23;2.92;;;4.60;99.90;;;;;;5076298;28;20761;-62
2022/01/31 06:54:54;;;;;;;18.63;2.30;;;4.60;99.90;;;;;;5057353;28;20045;-63
2022/01/31 06:57:23;;;;;;;10.95;2.25;;;4.70;99.90;;;;;;5075540;28;20193;-62
2022/01/31 06:59:49;;;;;;;9.82;2.10;;;4.70;99.90;;;;;;5057827;28;20536;-62
2022/01/31 07:02:14;;;;;;;14.23;2.47;;;4.70;99.90;;;;;;5057715;28;20045;-62
2022/01/31 07:04:40;;;;;;;9.18;1.70;;;4.50;99.90;;;;;;5057686;28;20045;-61
2022/01/31 07:07:06;;;;;;;12.63;1.75;;;4.70;99.90;;;;;;5075541;28;20075;-62
2022/01/31 07:09:35;;;;;;;12.55;1.98;;;4.50;99.90;;;;;;5057714;28;20123;-62
2022/01/31 07:12:03;;;;;;;19.35;2.53;;;4.70;99.90;;;;;;5075671;28;20052;-62
2022/01/31 07:14:31;;;;;;;20.20;3.40;;;4.60;99.90;;;;;;5075460;28;20052;-62
2022/01/31 07:17:03;;;;;;;14.15;1.80;;;4.60;99.90;;;;;;5040950;28;20044;-62
2022/01/31 07:19:32;;;;;;;15.80;2.03;;;4.60;99.90;;;;;;5075397;28;20052;-62
2022/01/31 07:21:58;;;;;;;12.13;2.10;;;4.60;99.90;;;;;;5075891;28;20044;-62
2022/01/31 07:25:20;;;;;;;11.35;1.85;;;4.70;99.90;;;;;;5075293;28;20045;-62
2022/01/31 07:27:11;;;;;;;10.32;1.70;;;4.70;99.90;;;;;;5061215;28;20078;-63
2022/01/31 07:29:37;;;;;;;11.70;1.92;;;4.50;99.90;;;;;;5057339;28;20182;-62
2022/01/31 07:32:03;;;;;;;13.52;2.00;;;4.50;99.90;;;;;;5057327;28;20071;-62
2022/01/31 07:34:29;;;;;;;10.02;1.67;;;4.50;99.90;;;;;;5057172;28;20521;-62
2022/01/31 07:36:54;;;;;;;13.13;1.48;;;4.70;99.90;;;;;;5059393;28;20090;-62
2022/01/31 07:39:20;;;;;;;14.05;1.50;;;4.70;99.90;;;;;;5079954;28;20075;-62
2022/01/31 07:41:49;;;;;;;15.30;2.33;;;4.70;99.90;;;;;;5061195;28;20091;-62
2022/01/31 07:44:16;;;;;;;11.00;1.85;;;4.70;99.90;;;;;;5061440;28;20060;-62
2022/01/31 07:46:41;;;;;;;9.65;1.70;;;4.70;99.90;;;;;;5044351;28;20052;-62
2022/01/31 07:49:07;;;;;;;8.88;1.73;;;4.50;99.90;;;;;;5061357;28;20056;-63
2022/01/31 07:51:37;;;;;;;9.68;1.63;;;4.50;99.90;;;;;;5079709;28;20056;-62
2022/01/31 07:54:03;;;;;;;16.10;1.77;;;4.60;99.90;;;;;;5078727;28;20067;-62
2022/01/31 07:56:29;;;;;;;14.98;2.28;;;4.40;99.90;;;;;;5079762;28;20487;-62
2022/01/31 07:58:55;;;;;;;15.88;2.92;;;4.50;99.90;;;;;;5078749;28;20046;-62
2022/01/31 08:01:20;;;;;;;15.30;1.70;;;4.50;99.90;;;;;;5079285;28;20102;-62
2022/01/31 08:03:47;;;;;;;9.63;1.80;;;4.60;99.90;;;;;;5060901;28;20055;-63
2022/01/31 08:06:13;;;;;;;19.38;3.85;;;4.50;99.90;;;;;;5061144;28;20454;-63
2022/01/31 08:08:41;;;;;;;19.27;2.05;;;4.60;99.90;;;;;;5044719;28;20059;-62
2022/01/31 08:11:07;;;;;;;14.45;2.13;;;4.80;99.90;;;;;;5078280;28;20048;-62
2022/01/31 08:13:34;;;;;;;11.65;1.90;;;4.80;99.90;;;;;;5063959;28;20036;-62
2022/01/31 08:16:02;;;;;;;12.15;1.67;;;4.80;99.90;;;;;;5080417;28;20163;-62
2022/01/31 08:18:31;;;;;;;10.10;1.50;;;4.60;99.90;;;;;;5080571;28;20052;-62
2022/01/31 08:20:57;;;;;;;11.98;1.83;;;4.60;99.90;;;;;;5098792;28;20135;-62
2022/01/31 08:23:23;;;;;;;11.30;2.17;;;4.70;99.90;;;;;;5080316;28;20100;-62
2022/01/31 08:25:50;;;;;;;9.10;1.50;;;4.50;99.90;;;;;;5081202;28;20105;-62
2022/01/31 08:28:17;;;;;;;12.02;1.67;;;4.50;99.90;;;;;;5084049;28;20113;-62
2022/01/31 08:30:58;;;;;;;15.25;4.38;;;4.70;99.90;;;;;;5061011;28;20072;-62
2022/01/31 08:33:39;;;;;;;11.25;1.73;;;4.70;99.90;;;;;;5045287;28;20054;-62
2022/01/31 08:36:07;;;;;;;9.40;2.25;;;4.70;99.90;;;;;;5078640;28;20597;-62
2022/01/31 08:38:39;;;;;;;14.88;2.10;;;4.70;99.90;;;;;;5060927;28;20048;-62
2022/01/31 08:41:06;;;;;;;12.85;1.58;;;4.80;99.90;;;;;;5078072;28;20078;-62
2022/01/31 08:43:36;;;;;;;7.95;1.52;;;4.80;99.90;;;;;;5078820;28;20055;-62
2022/01/31 08:46:02;;;;;;;12.50;1.60;;;4.80;99.90;;;;;;5077739;28;20066;-62
2022/01/31 08:48:30;;;;;;;13.65;2.10;;;4.80;99.90;;;;;;5077492;28;20040;-62
2022/01/31 08:50:56;;;;;;;10.10;1.95;;;4.80;99.90;;;;;;5077987;28;20170;-63
2022/01/31 08:53:22;;;;;;;11.70;1.70;;;5.10;99.90;;;;;;5053198;28;20055;-63
2022/01/31 08:55:55;;;;;;;9.07;1.73;;;5.00;99.90;;;;;;5078523;28;20680;-62
2022/01/31 08:58:21;;;;;;;12.05;2.17;;;5.30;99.90;;;;;;5077661;28;20066;-62
2022/01/31 09:00:51;;;;;;;17.23;1.80;;;5.20;99.90;;;;;;5060698;28;20056;-62
2022/01/31 09:03:35;;;;;;;14.70;1.70;;;5.30;99.90;;;;;;5077681;28;20081;-62
2022/01/31 09:06:02;;;;;;;13.15;1.90;;;5.30;99.90;;;;;;5077585;28;20041;-62
2022/01/31 09:08:28;;;;;;;9.98;2.40;;;5.40;99.90;;;;;;5060181;28;20138;-62
2022/01/31 09:10:53;;;;;;;13.25;1.90;;;5.50;99.90;;;;;;5076141;28;20092;-61
2022/01/31 09:13:19;;;;;;;14.32;2.03;;;5.30;99.90;;;;;;5095168;28;20119;-62
2022/01/31 09:15:45;;;;;;;11.75;1.98;;;5.40;99.90;;;;;;5079438;28;20047;-62
2022/01/31 09:18:11;;;;;;;13.68;2.30;;;5.50;99.90;;;;;;5097894;28;20079;-62
2022/01/31 09:20:37;;;;;;;12.05;1.70;;;5.50;99.90;;;;;;5097514;28;20070;-62
2022/01/31 09:23:04;;;;;;;11.43;1.95;;;5.50;99.90;;;;;;5097338;28;20051;-62
2022/01/31 09:25:30;;;;;;;15.45;2.00;;;5.40;99.90;;;;;;5081239;28;20055;-62
2022/01/31 09:27:59;;;;;;;10.07;1.70;;;5.50;99.90;;;;;;5089124;28;20040;-62
2022/01/31 09:30:27;;;;;;;11.95;1.60;;;5.50;99.90;;;;;;5080344;28;20068;-62
2022/01/31 09:32:57;;;;;;;9.98;1.27;;;5.50;99.90;;;;;;5080223;28;20037;-62
2022/01/31 09:35:25;;;;;;;9.38;1.48;;;5.60;99.90;;;;;;5079457;28;20052;-62
2022/01/31 09:37:51;;;;;;;8.98;1.40;;;5.80;99.90;;;;;;5078738;28;20120;-61
2022/01/31 09:40:20;;;;;;;11.73;1.88;;;5.70;99.90;;;;;;5080511;28;20033;-62
2022/01/31 09:43:25;;;;;;;12.25;1.48;;;5.80;99.90;;;;;;5078561;28;20037;-62
2022/01/31 09:48:37;;;;;;;10.02;1.73;;;5.90;99.90;;;;;;5080293;28;20079;-62
2022/01/31 09:51:05;;;;;;;12.48;2.03;;;6.10;99.90;;;;;;5080040;28;20044;-62
2022/01/31 09:53:32;;;;;;;12.70;2.35;;;6.10;99.90;;;;;;5079965;28;20083;-61
2022/01/31 09:55:58;;;;;;;6.68;1.70;;;6.00;99.90;;;;;;5062641;28;20040;-61
2022/01/31 09:58:29;;;;;;;14.00;1.85;;;6.20;99.90;;;;;;5062128;28;20048;-62
2022/01/31 10:01:08;;;;;;;12.57;1.70;;;6.30;99.90;;;;;;5062478;28;20133;-61
2022/01/31 10:03:48;;;;;;;11.90;1.35;;;6.30;99.90;;;;;;5079867;28;20537;-62
2022/01/31 10:06:24;;;;;;;11.60;1.67;;;6.30;99.90;;;;;;5062023;28;20044;-62
2022/01/31 10:09:15;;;;;;;16.70;2.78;;;6.50;99.90;;;;;;5080623;28;20053;-61
2022/01/31 10:11:56;;;;;;;10.10;2.03;;;6.40;99.90;;;;;;5079686;28;20104;-61
2022/01/31 10:17:20;;;;;;;14.40;3.65;;;6.60;99.90;;;;;;5078756;28;20052;-61
2022/01/31 10:19:46;;;;;;;11.38;2.58;;;6.60;99.90;;;;;;5060517;28;20043;-61
2022/01/31 10:22:16;;;;;;;10.93;2.10;;;6.60;99.90;;;;;;5080216;28;20040;-61
2022/01/31 10:24:45;;;;;;;13.70;2.17;;;6.50;99.90;;;;;;5061381;28;20075;-60
2022/01/31 10:27:28;;;;;;;12.05;2.72;;;6.60;99.90;;;;;;5044643;28;20078;-61
2022/01/31 10:30:05;;;;;;;17.42;1.95;;;6.70;99.90;;;;;;5061741;28;20048;-60
2022/01/31 10:32:35;;;;;;;12.25;2.20;;;6.60;99.90;;;;;;5079360;28;20060;-61
2022/01/31 10:35:10;;;;;;;11.00;2.15;;;6.70;99.90;;;;;;5076601;28;20048;-62
2022/01/31 10:37:40;;;;;;;13.40;3.25;;;6.70;99.90;;;;;;5075678;28;20047;-61
2022/01/31 10:43:36;;;;;;;17.30;2.20;;;6.80;99.90;;;;;;5079082;28;20041;-61
2022/01/31 10:54:10;;;;;;;14.63;2.20;;;7.00;99.90;;;;;;5078838;28;20088;-62
2022/01/31 10:56:40;;;;;;;15.02;3.08;;;7.00;99.90;;;;;;5060718;28;20043;-61
2022/01/31 10:59:24;;;;;;;16.73;2.55;;;6.90;99.90;;;;;;5078391;28;20062;-62
2022/01/31 11:01:52;;;;;;;22.25;3.75;;;7.10;99.90;;;;;;5060572;28;20074;-61
2022/01/31 11:04:18;;;;;;;15.73;3.65;;;7.10;99.90;;;;;;5044261;28;20056;-62
2022/01/31 11:06:46;;;;;;;12.15;3.05;;;7.00;99.90;;;;;;5078638;28;20032;-62
2022/01/31 11:09:15;;;;;;;16.63;2.40;;;7.10;99.90;;;;;;5079127;28;20066;-61
2022/01/31 11:11:46;;;;;;;16.95;2.80;;;7.10;99.90;;;;;;5078128;28;20089;-62
2022/01/31 11:14:14;;;;;;;15.45;3.13;;;7.00;99.90;;;;;;5079249;28;20032;-61
2022/01/31 11:16:42;;;;;;;19.05;2.72;;;6.90;99.90;;;;;;5060682;28;20036;-61
2022/01/31 11:19:10;;;;;;;16.20;3.15;;;6.90;99.90;;;;;;5077910;28;20203;-61
2022/01/31 11:21:44;;;;;;;16.17;3.30;;;6.90;99.90;;;;;;5059739;28;20144;-62
2022/01/31 11:24:20;;;;;;;17.10;3.47;;;6.90;99.90;;;;;;5077298;28;20036;-61
2022/01/31 11:27:01;;;;;;;22.20;3.42;;;6.90;99.90;;;;;;5076630;28;20102;-60
2022/01/31 11:29:27;;;;;;;20.88;2.85;;;6.90;99.90;;;;;;5075202;28;20043;-61
2022/01/31 11:31:54;;;;;;;19.48;3.28;;;6.90;99.90;;;;;;5066211;28;20041;-61
2022/01/31 11:34:24;;;;;;;12.50;2.10;;;6.90;99.90;;;;;;5068509;28;20040;-61
2022/01/31 11:36:51;;;;;;;19.35;3.42;;;7.10;99.90;;;;;;5049913;28;20041;-61
2022/01/31 11:39:17;;;;;;;23.33;4.07;;;7.20;99.90;;;;;;5076343;28;20377;-61
2022/01/31 11:41:56;;;;;;;13.10;2.10;;;7.30;99.90;;;;;;5078562;28;20040;-62
2022/01/31 11:44:30;;;;;;;21.73;4.25;;;7.40;99.90;;;;;;5078542;28;20036;-61
2022/01/31 11:46:57;;;;;;;16.63;2.50;;;7.50;99.90;;;;;;5078891;28;20099;-63
2022/01/31 11:49:23;;;;;;;17.05;2.97;;;7.40;99.90;;;;;;5078361;28;20044;-61
2022/01/31 11:52:01;;;;;;;16.80;2.80;;;7.30;99.90;;;;;;5079248;28;20052;-61
2022/01/31 11:54:27;;;;;;;18.13;2.95;;;7.30;99.90;;;;;;5077124;28;20040;-62
2022/01/31 11:56:53;;;;;;;12.85;2.30;;;7.60;99.90;;;;;;5077201;28;20048;-61
2022/01/31 11:59:21;;;;;;;15.90;3.17;;;7.70;99.90;;;;;;5078683;28;20104;-61
2022/01/31 12:01:53;;;;;;;17.20;3.15;;;7.80;99.90;;;;;;5077055;28;20036;-61
2022/01/31 12:04:23;;;;;;;17.33;2.80;;;7.70;99.90;;;;;;5060512;28;20087;-61
2022/01/31 12:06:50;;;;;;;18.30;2.55;;;7.70;99.90;;;;;;5077175;28;20748;-61
2022/01/31 12:09:23;;;;;;;23.63;6.35;;;7.50;99.90;;;;;;5077401;28;20052;-61
2022/01/31 12:11:54;;;;;;;14.63;2.65;;;7.50;99.90;;;;;;5078121;28;20036;-61
2022/01/31 12:14:26;;;;;;;16.77;2.30;;;7.30;99.90;;;;;;5076661;28;20043;-61
2022/01/31 12:17:22;;;;;;;16.30;2.15;;;7.30;99.90;;;;;;5078518;28;20040;-62
2022/01/31 12:22:12;;;;;;;14.63;3.50;;;7.40;99.90;;;;;;5077719;28;20049;-62
2022/01/31 12:24:37;;;;;;;17.35;3.67;;;7.40;99.90;;;;;;5063072;28;20098;-61
2022/01/31 12:27:26;;;;;;;18.00;3.72;;;7.40;99.90;;;;;;5082104;28;20076;-62
2022/01/31 12:29:57;;;;;;;24.40;3.10;;;7.40;99.90;;;;;;5082414;28;20793;-61
2022/01/31 12:32:35;;;;;;;13.63;2.90;;;7.40;99.90;;;;;;5080331;28;20124;-61
2022/01/31 12:35:07;;;;;;;20.10;3.17;;;7.40;99.90;;;;;;5082362;28;20070;-61
2022/01/31 12:37:38;;;;;;;;;;;7.40;99.90;;;;;;5080846;28;20048;-61
2022/01/31 12:40:19;;;;;;;16.23;2.75;;;7.40;99.90;;;;;;5081563;28;19924;-61
2022/01/31 12:43:08;;;;;;;16.63;3.75;;;7.50;99.90;;;;;;5081944;28;20044;-62
2022/01/31 12:45:37;;;;;;;15.43;2.95;;;7.40;99.90;;;;;;5081604;28;20059;-61
2022/01/31 12:48:06;;;;;;;22.70;3.05;;;7.40;99.90;;;;;;5081939;28;20123;-62
2022/01/31 12:50:34;;;;;;;23.92;4.32;;;7.40;99.90;;;;;;5079891;28;20041;-61
2022/01/31 12:53:06;;;;;;;23.90;4.05;;;7.30;99.90;;;;;;5080773;28;20044;-61
2022/01/31 12:55:35;;;;;;;28.75;4.28;;;7.40;99.90;;;;;;5081729;28;20076;-62
2022/01/31 12:58:02;;;;;;;16.45;3.75;;;7.30;99.90;;;;;;5062911;28;20054;-60
2022/01/31 13:00:40;;;;;;;16.45;2.83;;;7.20;99.90;;;;;;5064069;28;20130;-60
2022/01/31 13:03:06;;;;;;;27.50;4.50;;;7.30;99.90;;;;;;5062590;28;20098;-60
2022/01/31 13:05:37;;;;;;;25.35;4.22;;;7.40;99.90;;;;;;5081225;28;20468;-60
2022/01/31 13:08:23;;;;;;;21.92;3.83;;;7.40;99.90;;;;;;5081275;28;20076;-60
2022/01/31 13:10:53;;;;;;;16.30;2.97;;;7.40;99.90;;;;;;5081096;28;20137;-61
2022/01/31 13:13:38;;;;;;;24.58;3.95;;;7.40;99.90;;;;;;5081853;28;20048;-61